Time;durP1;ratioP1;P1;durP2;ratioP2;P2;SDS_P1;SDS_P2;PMS_P1;PMS_P2;Temp;Humidity;BMP_temperature;BMP_pressure;BME280_temperature;BME280_humidity;BME280_pressure;Samples;Min_cycle;Max_cycle;Signal;HPM_P1;HPM_P2
2022/09/12 00:01:19;;;;;;;19.83;11.33;;;13.20;99.90;;;;;;5102859;27;20260;-70
2022/09/12 00:03:47;;;;;;;17.30;11.03;;;13.20;99.90;;;;;;5108036;28;20636;-70
2022/09/12 00:06:18;;;;;;;15.87;10.43;;;13.10;99.90;;;;;;5103958;28;20228;-70
2022/09/12 00:08:47;;;;;;;19.23;10.67;;;13.10;99.90;;;;;;5110659;28;20284;-70
2022/09/12 00:11:14;;;;;;;18.23;11.23;;;13.00;99.90;;;;;;5118376;28;20200;-70
2022/09/12 00:13:42;;;;;;;20.10;10.70;;;13.00;99.90;;;;;;5112858;28;20603;-70
2022/09/12 00:16:16;;;;;;;16.90;10.73;;;13.00;99.90;;;;;;5129753;28;20640;-70
2022/09/12 00:18:45;;;;;;;15.97;10.70;;;12.90;99.90;;;;;;5128983;28;20200;-70
2022/09/12 00:21:12;;;;;;;18.70;10.00;;;12.80;99.90;;;;;;5110392;28;20200;-70
2022/09/12 00:23:39;;;;;;;18.03;9.80;;;12.80;99.90;;;;;;5129503;28;20696;-71
2022/09/12 00:26:08;;;;;;;16.27;10.80;;;12.80;99.90;;;;;;5126595;28;20237;-70
2022/09/12 00:28:37;;;;;;;17.77;10.03;;;12.80;99.90;;;;;;5129963;28;20636;-70
2022/09/12 00:31:06;;;;;;;15.50;9.77;;;12.80;99.90;;;;;;5125725;28;20242;-70
2022/09/12 00:33:34;;;;;;;16.30;10.77;;;12.80;99.90;;;;;;5132227;28;20755;-70
2022/09/12 00:36:05;;;;;;;17.43;10.23;;;12.80;99.90;;;;;;5122069;28;20205;-70
2022/09/12 00:38:32;;;;;;;17.50;10.07;;;12.80;99.90;;;;;;5127524;28;20224;-70
2022/09/12 00:40:59;;;;;;;17.57;9.83;;;12.80;99.90;;;;;;5113644;28;20201;-70
2022/09/12 00:43:39;;;;;;;15.63;10.27;;;12.80;99.90;;;;;;5120634;28;20319;-70
2022/09/12 00:46:16;;;;;;;16.10;9.73;;;12.70;99.90;;;;;;5119871;27;20275;-70
2022/09/12 00:48:48;;;;;;;17.67;9.40;;;12.70;99.90;;;;;;5114868;27;20229;-70
2022/09/12 00:51:16;;;;;;;15.13;9.73;;;12.70;99.90;;;;;;5121343;27;20280;-70
2022/09/12 00:53:46;;;;;;;15.67;9.67;;;12.60;99.90;;;;;;5114824;27;20611;-70
2022/09/12 00:56:15;;;;;;;14.60;9.40;;;12.50;99.90;;;;;;5116264;27;20627;-70
2022/09/12 00:58:48;;;;;;;15.97;9.60;;;12.50;99.90;;;;;;5114593;28;20250;-70
2022/09/12 01:01:15;;;;;;;19.43;10.60;;;12.50;99.90;;;;;;5110553;27;20209;-70
2022/09/12 01:03:42;;;;;;;16.03;10.63;;;12.50;99.90;;;;;;5109243;28;20629;-70
2022/09/12 01:06:15;;;;;;;15.50;9.87;;;12.50;99.90;;;;;;5122930;27;20287;-70
2022/09/12 01:08:44;;;;;;;17.43;10.57;;;12.50;99.90;;;;;;5122201;27;20272;-70
2022/09/12 01:11:13;;;;;;;16.23;9.43;;;12.50;99.90;;;;;;5123783;27;20197;-70
2022/09/12 01:13:40;;;;;;;15.43;9.67;;;12.50;99.90;;;;;;5135593;27;20196;-70
2022/09/12 01:16:08;;;;;;;15.73;9.03;;;12.40;99.90;;;;;;5124646;27;20217;-70
2022/09/12 01:18:46;;;;;;;14.00;8.60;;;12.30;99.90;;;;;;5096728;27;20260;-70
2022/09/12 01:21:20;;;;;;;16.30;9.93;;;12.30;99.90;;;;;;5099393;27;20748;-70
2022/09/12 01:24:17;;;;;;;13.47;9.00;;;12.30;99.90;;;;;;5099827;27;20649;-70
2022/09/12 01:27:25;;;;;;;15.43;9.10;;;12.30;99.90;;;;;;5125169;27;20236;-70
2022/09/12 01:30:25;;;;;;;14.20;9.83;;;12.40;99.90;;;;;;5099728;28;20617;-70
2022/09/12 01:33:28;;;;;;;15.13;9.53;;;12.30;99.90;;;;;;5074617;27;20282;-70
2022/09/12 01:36:16;;;;;;;14.07;9.50;;;12.40;99.90;;;;;;5120333;27;20223;-70
2022/09/12 01:38:46;;;;;;;17.47;9.37;;;12.30;99.90;;;;;;5117974;27;20205;-70
2022/09/12 01:41:24;;;;;;;15.73;9.60;;;12.30;99.90;;;;;;5110949;27;20240;-70
2022/09/12 01:43:58;;;;;;;14.10;10.10;;;12.20;99.90;;;;;;5100411;28;20311;-70
2022/09/12 01:46:32;;;;;;;15.77;9.60;;;12.00;99.90;;;;;;5110111;27;20232;-70
2022/09/12 01:49:07;;;;;;;15.07;9.47;;;11.80;99.90;;;;;;5101551;27;20205;-70
2022/09/12 01:51:38;;;;;;;17.00;10.23;;;11.80;99.90;;;;;;5111367;27;20232;-70
2022/09/12 01:54:09;;;;;;;17.23;9.93;;;11.90;99.90;;;;;;5113042;27;20193;-70
2022/09/12 01:56:40;;;;;;;12.63;8.63;;;11.90;99.90;;;;;;5114549;27;20246;-70
2022/09/12 01:59:12;;;;;;;13.73;8.77;;;11.90;99.90;;;;;;5114740;27;20629;-70
2022/09/12 02:01:45;;;;;;;20.30;9.93;;;11.90;99.90;;;;;;5118145;27;20254;-70
2022/09/12 02:04:17;;;;;;;14.27;8.70;;;12.00;99.90;;;;;;5117243;27;20251;-70
2022/09/12 02:06:48;;;;;;;15.37;9.47;;;12.00;99.90;;;;;;5119903;27;20204;-70
2022/09/12 02:09:20;;;;;;;16.97;9.67;;;12.00;99.90;;;;;;5117059;27;20240;-70
2022/09/12 02:11:50;;;;;;;15.37;9.37;;;12.00;99.90;;;;;;5118064;27;20208;-71
2022/09/12 02:14:22;;;;;;;13.90;8.43;;;11.80;99.90;;;;;;5125340;27;20285;-68
2022/09/12 02:16:54;;;;;;;14.27;8.67;;;11.70;99.90;;;;;;5108470;27;20279;-71
2022/09/12 02:19:26;;;;;;;14.73;8.83;;;11.60;99.90;;;;;;5112011;28;20707;-71
2022/09/12 02:21:56;;;;;;;13.50;8.90;;;11.60;99.90;;;;;;5112034;27;20279;-71
2022/09/12 02:24:30;;;;;;;14.63;8.63;;;11.60;99.90;;;;;;5132641;27;20306;-71
2022/09/12 02:27:01;;;;;;;11.20;7.20;;;11.60;99.90;;;;;;5113722;27;20540;-71
2022/09/12 02:29:29;;;;;;;11.37;7.83;;;11.60;99.90;;;;;;5112298;27;20231;-71
2022/09/12 02:31:59;;;;;;;13.37;8.07;;;11.40;99.90;;;;;;5114665;27;20259;-71
2022/09/12 02:34:42;;;;;;;15.37;8.60;;;11.40;99.90;;;;;;5116369;27;20232;-71
2022/09/12 02:37:19;;;;;;;11.43;7.90;;;11.40;99.90;;;;;;5129757;27;20208;-71
2022/09/12 02:39:46;;;;;;;12.20;7.93;;;11.40;99.90;;;;;;5126933;27;20229;-71
2022/09/12 02:42:13;;;;;;;11.57;7.63;;;11.30;99.90;;;;;;5106000;27;20233;-71
2022/09/12 02:44:41;;;;;;;12.53;8.73;;;11.30;99.90;;;;;;5125424;27;20280;-71
2022/09/12 02:47:12;;;;;;;13.93;8.60;;;11.40;99.90;;;;;;5120497;27;20196;-71
2022/09/12 02:49:41;;;;;;;16.90;9.60;;;11.40;99.90;;;;;;5129337;27;20200;-71
2022/09/12 02:52:08;;;;;;;14.87;9.20;;;11.50;99.90;;;;;;5118507;27;20227;-71
2022/09/12 02:54:36;;;;;;;16.50;9.13;;;11.50;99.90;;;;;;5109701;27;20284;-71
2022/09/12 02:57:05;;;;;;;12.53;8.80;;;11.60;99.90;;;;;;5112571;27;20263;-71
2022/09/12 02:59:33;;;;;;;15.40;9.47;;;11.60;99.90;;;;;;5092551;28;20288;-71
2022/09/12 03:02:23;;;;;;;18.83;9.93;;;11.60;99.90;;;;;;5115178;27;20201;-71
2022/09/12 03:05:18;;;;;;;13.80;9.53;;;11.60;99.90;;;;;;5112715;28;20256;-71
2022/09/12 03:08:02;;;;;;;13.70;8.63;;;11.50;99.90;;;;;;5099344;28;20436;-71
2022/09/12 03:10:39;;;;;;;10.87;8.10;;;11.60;99.90;;;;;;5099062;28;20256;-71
2022/09/12 03:13:18;;;;;;;15.73;9.73;;;11.40;99.90;;;;;;5123401;27;20240;-71
2022/09/12 03:15:54;;;;;;;10.97;7.50;;;11.20;99.90;;;;;;5119050;27;20652;-71
2022/09/12 03:18:35;;;;;;;14.00;8.70;;;11.20;99.90;;;;;;5114672;27;20582;-71
2022/09/12 03:21:12;;;;;;;14.77;9.43;;;11.30;99.90;;;;;;5097380;28;20613;-71
2022/09/12 03:23:44;;;;;;;16.20;9.03;;;11.30;99.90;;;;;;5074265;28;20294;-71
2022/09/12 03:26:16;;;;;;;13.23;9.90;;;11.40;99.90;;;;;;5091606;28;20684;-71
2022/09/12 03:28:45;;;;;;;15.83;9.77;;;11.40;99.90;;;;;;5091726;28;20259;-71
2022/09/12 03:31:14;;;;;;;18.00;10.47;;;11.40;99.90;;;;;;5090783;28;20209;-71
2022/09/12 03:33:41;;;;;;;18.20;12.57;;;11.60;99.90;;;;;;5090581;28;20208;-71
2022/09/12 03:36:15;;;;;;;14.30;9.50;;;11.60;99.90;;;;;;5091478;28;20296;-71
2022/09/12 03:38:42;;;;;;;16.93;9.43;;;11.50;99.90;;;;;;5091677;28;20251;-71
2022/09/12 03:41:10;;;;;;;16.70;10.27;;;11.40;99.90;;;;;;5091406;28;20241;-71
2022/09/12 03:43:37;;;;;;;15.90;10.53;;;11.60;99.90;;;;;;5091894;28;20630;-71
2022/09/12 03:46:04;;;;;;;14.93;9.37;;;11.50;99.90;;;;;;5090053;28;20276;-71
2022/09/12 03:48:31;;;;;;;16.67;10.63;;;11.40;99.90;;;;;;5090743;28;20252;-71
2022/09/12 03:51:00;;;;;;;15.80;10.53;;;11.40;99.90;;;;;;5096016;28;20193;-71
2022/09/12 03:53:29;;;;;;;15.30;9.60;;;11.40;99.90;;;;;;5119498;27;20231;-71
2022/09/12 03:55:56;;;;;;;14.80;10.23;;;11.40;99.90;;;;;;5115949;27;20209;-71
2022/09/12 03:58:23;;;;;;;16.33;9.47;;;11.30;99.90;;;;;;5111326;28;20663;-70
2022/09/12 04:00:51;;;;;;;15.97;9.83;;;11.20;99.90;;;;;;5109101;28;20728;-71
2022/09/12 04:03:18;;;;;;;15.30;10.20;;;11.20;99.90;;;;;;5111499;28;20240;-71
2022/09/12 04:05:46;;;;;;;16.00;10.13;;;11.20;99.90;;;;;;5110823;28;20205;-71
2022/09/12 04:08:13;;;;;;;19.43;11.00;;;11.20;99.90;;;;;;5111092;28;20226;-71
2022/09/12 04:10:43;;;;;;;18.10;10.00;;;11.20;99.90;;;;;;5111400;28;20237;-71
2022/09/12 04:13:09;;;;;;;15.90;9.50;;;11.20;99.90;;;;;;5111866;28;20232;-71
2022/09/12 04:15:36;;;;;;;15.33;10.23;;;11.20;99.90;;;;;;5111507;28;20244;-71
2022/09/12 04:18:04;;;;;;;17.57;12.10;;;11.30;99.90;;;;;;5111570;28;20229;-71
2022/09/12 04:20:31;;;;;;;15.77;10.20;;;11.30;99.90;;;;;;5110117;28;20232;-71
2022/09/12 04:22:58;;;;;;;14.57;9.57;;;11.30;99.90;;;;;;5114032;28;20201;-71
2022/09/12 04:25:26;;;;;;;16.13;9.87;;;11.30;99.90;;;;;;5110097;28;20756;-71
2022/09/12 04:27:54;;;;;;;16.77;10.90;;;11.20;99.90;;;;;;5115997;28;20616;-71
2022/09/12 04:30:21;;;;;;;18.83;12.90;;;11.10;99.90;;;;;;5113453;28;20232;-71
2022/09/12 04:32:48;;;;;;;17.67;11.47;;;11.00;99.90;;;;;;5111673;28;20197;-71
2022/09/12 04:35:15;;;;;;;16.23;10.77;;;11.10;99.90;;;;;;5112078;28;20681;-71
2022/09/12 04:37:42;;;;;;;18.47;10.30;;;11.10;99.90;;;;;;5095192;28;20710;-71
2022/09/12 04:40:09;;;;;;;15.40;10.30;;;11.10;99.90;;;;;;5095113;28;20240;-71
2022/09/12 04:42:36;;;;;;;18.30;10.37;;;11.10;99.90;;;;;;5094938;28;20281;-71
2022/09/12 04:45:06;;;;;;;18.13;10.57;;;11.00;99.90;;;;;;5093974;28;20314;-71
2022/09/12 04:47:33;;;;;;;15.10;9.97;;;11.00;99.90;;;;;;5094493;28;20466;-71
2022/09/12 04:50:00;;;;;;;19.47;12.10;;;11.00;99.90;;;;;;5093721;28;20198;-71
2022/09/12 04:52:27;;;;;;;16.63;10.60;;;11.10;99.90;;;;;;5115675;27;20280;-71
2022/09/12 04:54:54;;;;;;;13.87;9.27;;;11.00;99.90;;;;;;5118868;27;20247;-71
2022/09/12 04:57:21;;;;;;;16.60;9.83;;;11.00;99.90;;;;;;5114521;28;20201;-71
2022/09/12 04:59:48;;;;;;;14.87;8.90;;;11.00;99.90;;;;;;5113290;28;20557;-71
2022/09/12 05:02:16;;;;;;;15.60;9.30;;;10.90;99.90;;;;;;5097360;28;20206;-71
2022/09/12 05:04:45;;;;;;;16.10;9.73;;;10.90;99.90;;;;;;5094417;28;20229;-71
2022/09/12 05:07:12;;;;;;;14.23;9.00;;;10.90;99.90;;;;;;5094624;28;20253;-71
2022/09/12 05:09:40;;;;;;;15.93;9.73;;;11.00;99.90;;;;;;5094296;28;20198;-71
2022/09/12 05:12:08;;;;;;;12.80;8.97;;;11.00;99.90;;;;;;5094458;28;20214;-71
2022/09/12 05:14:35;;;;;;;15.53;9.40;;;10.90;99.90;;;;;;5094181;28;20205;-71
2022/09/12 05:17:04;;;;;;;16.10;10.00;;;11.10;99.90;;;;;;5093551;28;20707;-71
2022/09/12 05:19:33;;;;;;;17.07;9.23;;;11.30;99.90;;;;;;5094371;28;20205;-71
2022/09/12 05:22:00;;;;;;;14.33;9.80;;;11.30;99.90;;;;;;5094420;28;20255;-71
2022/09/12 05:24:27;;;;;;;14.93;9.83;;;11.30;99.90;;;;;;5094568;28;20202;-71
2022/09/12 05:26:54;;;;;;;14.53;9.27;;;11.40;99.90;;;;;;5094463;28;20767;-71
2022/09/12 05:29:21;;;;;;;13.60;9.17;;;11.40;99.90;;;;;;5092719;28;20609;-71
2022/09/12 05:31:49;;;;;;;14.23;8.90;;;11.50;99.90;;;;;;5099698;27;20200;-71
2022/09/12 05:34:15;;;;;;;14.87;9.17;;;11.40;99.90;;;;;;5117749;27;20207;-71
2022/09/12 05:36:44;;;;;;;13.63;8.60;;;11.50;99.90;;;;;;5103958;28;20684;-70
2022/09/12 05:39:11;;;;;;;14.47;9.43;;;11.60;99.90;;;;;;5094205;28;20243;-69
2022/09/12 05:41:38;;;;;;;17.00;8.90;;;11.50;99.90;;;;;;5095687;28;20295;-69
2022/09/12 05:44:11;;;;;;;15.03;9.00;;;11.50;99.90;;;;;;5085709;28;20205;-68
2022/09/12 05:46:39;;;;;;;14.23;9.00;;;11.50;99.90;;;;;;5105897;28;20792;-69
2022/09/12 05:49:08;;;;;;;13.87;8.93;;;11.70;99.90;;;;;;5108734;28;20285;-69
2022/09/12 05:51:38;;;;;;;14.50;8.87;;;11.70;99.90;;;;;;5119525;27;20716;-69
2022/09/12 05:54:08;;;;;;;13.90;8.57;;;11.80;99.90;;;;;;5113401;28;20205;-69
2022/09/12 05:56:39;;;;;;;14.87;8.93;;;11.90;99.90;;;;;;5119380;27;20620;-69
2022/09/12 05:59:07;;;;;;;14.67;8.83;;;12.30;99.90;;;;;;5093820;28;20211;-69
2022/09/12 06:01:36;;;;;;;15.50;8.70;;;12.30;99.90;;;;;;5093473;28;20285;-69
2022/09/12 06:04:05;;;;;;;13.47;8.40;;;12.20;99.90;;;;;;5092247;28;20198;-69
2022/09/12 06:06:35;;;;;;;13.23;8.23;;;12.40;99.90;;;;;;5093897;28;20585;-69
2022/09/12 06:09:04;;;;;;;13.07;8.50;;;12.30;99.90;;;;;;5092319;28;20297;-69
2022/09/12 06:11:36;;;;;;;13.63;8.63;;;12.50;99.90;;;;;;5093158;28;20298;-69
2022/09/12 06:14:03;;;;;;;12.70;8.87;;;12.40;99.90;;;;;;5093929;28;20206;-69
2022/09/12 06:16:33;;;;;;;13.80;8.93;;;12.30;99.90;;;;;;5091384;28;20206;-69
2022/09/12 06:19:02;;;;;;;14.13;8.87;;;12.40;99.90;;;;;;5120172;27;20576;-69
2022/09/12 06:21:30;;;;;;;14.20;8.23;;;12.60;99.90;;;;;;5117953;27;20233;-69
2022/09/12 06:23:58;;;;;;;12.57;8.57;;;12.60;99.90;;;;;;5112017;28;20242;-69
2022/09/12 06:26:26;;;;;;;13.97;9.00;;;12.70;99.90;;;;;;5112177;28;20224;-69
2022/09/12 06:28:56;;;;;;;15.10;9.27;;;12.90;99.90;;;;;;5105458;28;20233;-69
2022/09/12 06:31:27;;;;;;;12.57;9.00;;;13.60;99.90;;;;;;5091552;28;20237;-69
2022/09/12 06:33:55;;;;;;;14.67;8.53;;;13.70;99.90;;;;;;5092788;28;20205;-69
2022/09/12 06:36:24;;;;;;;15.17;9.80;;;13.60;99.90;;;;;;5093087;28;20241;-69
2022/09/12 06:38:55;;;;;;;13.07;8.53;;;13.80;99.90;;;;;;5092510;28;20205;-69
2022/09/12 06:41:24;;;;;;;16.03;9.43;;;13.60;99.90;;;;;;5092694;28;20252;-70
2022/09/12 06:43:51;;;;;;;12.83;8.50;;;13.80;99.90;;;;;;5093143;28;20205;-69
2022/09/12 06:46:19;;;;;;;11.93;8.40;;;13.60;99.90;;;;;;5091554;28;20265;-70
2022/09/12 06:48:46;;;;;;;14.52;9.30;;;13.60;99.90;;;;;;5091950;28;20630;-73
2022/09/12 06:51:15;;;;;;;14.37;9.23;;;13.50;99.90;;;;;;5092433;28;20417;-69
2022/09/12 06:53:43;;;;;;;14.57;9.43;;;13.60;99.90;;;;;;5090794;28;20237;-69
2022/09/12 06:56:12;;;;;;;14.23;9.33;;;13.60;99.90;;;;;;5107986;27;20243;-72
2022/09/12 06:58:39;;;;;;;13.03;9.00;;;13.70;99.90;;;;;;5110858;28;20197;-71
2022/09/12 07:01:08;;;;;;;16.73;9.73;;;13.80;99.90;;;;;;5106680;28;20634;-72
2022/09/12 07:03:37;;;;;;;16.20;9.73;;;13.70;99.90;;;;;;5092220;28;20216;-73
2022/09/12 07:06:06;;;;;;;26.25;22.00;;;13.70;99.90;;;;;;5091616;28;20765;-73
2022/09/12 07:08:33;;;;;;;21.52;17.02;;;14.10;99.90;;;;;;5090674;28;20202;-73
2022/09/12 07:11:07;;;;;;;26.80;23.63;;;14.20;99.90;;;;;;5091228;28;20194;-71
2022/09/12 07:13:34;;;;;;;22.70;17.07;;;14.10;99.90;;;;;;5091810;28;20515;-71
2022/09/12 07:16:02;;;;;;;19.33;12.73;;;14.30;99.90;;;;;;5091089;28;20241;-70
2022/09/12 07:18:29;;;;;;;15.55;9.40;;;14.50;99.90;;;;;;5092288;28;20214;-70
2022/09/12 07:21:00;;;;;;;16.00;9.73;;;14.60;99.90;;;;;;5091194;28;20251;-71
2022/09/12 07:23:26;;;;;;;15.38;9.13;;;14.80;99.90;;;;;;5108675;27;20188;-70
2022/09/12 07:25:56;;;;;;;17.05;10.60;;;14.80;99.90;;;;;;5112142;28;20252;-70
2022/09/12 07:28:23;;;;;;;16.98;10.73;;;14.80;99.90;;;;;;5112526;28;20200;-73
2022/09/12 07:30:52;;;;;;;17.50;12.02;;;14.80;99.90;;;;;;5110890;28;20201;-71
2022/09/12 07:33:19;;;;;;;16.88;11.65;;;14.90;99.90;;;;;;5112256;28;20635;-73
2022/09/12 07:35:46;;;;;;;18.25;10.75;;;15.00;99.90;;;;;;5112133;28;20651;-73
2022/09/12 07:38:14;;;;;;;15.18;10.73;;;15.10;99.90;;;;;;5097047;28;20300;-70
2022/09/12 07:40:41;;;;;;;17.10;11.30;;;15.10;99.90;;;;;;5091552;28;20198;-70
2022/09/12 07:43:08;;;;;;;17.38;11.68;;;15.20;99.90;;;;;;5108795;28;20232;-71
2022/09/12 07:45:35;;;;;;;14.35;11.13;;;15.30;99.90;;;;;;5111833;28;20708;-69
2022/09/12 07:48:03;;;;;;;19.02;11.70;;;15.40;99.90;;;;;;5095481;28;20288;-69
2022/09/12 07:50:30;;;;;;;16.48;10.60;;;15.40;99.90;;;;;;5095919;28;20247;-73
2022/09/12 07:52:56;;;;;;;18.42;11.73;;;15.50;99.90;;;;;;5112487;28;20470;-71
2022/09/12 07:55:25;;;;;;;18.35;11.38;;;15.60;99.90;;;;;;5100950;28;20229;-70
2022/09/12 07:57:52;;;;;;;18.75;11.32;;;15.70;99.90;;;;;;5096991;28;20666;-70
2022/09/12 08:00:19;;;;;;;16.48;11.90;;;15.80;99.90;;;;;;5111978;28;20232;-70
2022/09/12 08:02:51;;;;;;;18.20;11.65;;;15.90;99.90;;;;;;5111043;28;20292;-70
2022/09/12 08:05:19;;;;;;;19.38;11.30;;;16.00;99.90;;;;;;5112006;28;20204;-70
2022/09/12 08:07:46;;;;;;;17.00;11.20;;;16.00;99.90;;;;;;5105858;28;20286;-71
2022/09/12 08:10:13;;;;;;;16.25;11.15;;;16.20;99.90;;;;;;5094207;28;20291;-69
2022/09/12 08:12:41;;;;;;;17.10;10.98;;;16.30;99.90;;;;;;5103825;28;20233;-70
2022/09/12 08:15:09;;;;;;;17.35;11.82;;;16.40;99.90;;;;;;5111432;28;20221;-70
2022/09/12 08:17:36;;;;;;;17.77;11.57;;;16.50;99.90;;;;;;5100407;28;20288;-70
2022/09/12 08:20:03;;;;;;;16.33;11.25;;;16.60;99.90;;;;;;5091333;28;20209;-69
2022/09/12 08:22:30;;;;;;;17.35;11.77;;;16.70;99.90;;;;;;5107923;28;20203;-73
2022/09/12 08:24:58;;;;;;;18.17;11.35;;;16.80;99.90;;;;;;5111451;28;20197;-73
2022/09/12 08:27:24;;;;;;;18.55;11.73;;;16.90;99.90;;;;;;5094707;28;20225;-71
2022/09/12 08:29:54;;;;;;;17.17;11.13;;;16.90;99.90;;;;;;5090686;28;20614;-71
2022/09/12 08:32:21;;;;;;;16.60;10.90;;;16.90;99.90;;;;;;5089656;28;20201;-70
2022/09/12 08:34:48;;;;;;;18.25;11.00;;;17.00;99.90;;;;;;5090576;28;20233;-70
2022/09/12 08:37:15;;;;;;;15.35;10.45;;;17.10;99.90;;;;;;5091666;28;20627;-70
2022/09/12 08:39:42;;;;;;;16.52;11.00;;;17.20;99.90;;;;;;5091256;28;20209;-70
2022/09/12 08:42:10;;;;;;;15.55;10.23;;;17.30;99.90;;;;;;5091950;28;20206;-70
2022/09/12 08:45:10;;;;;;;15.77;10.68;;;17.40;99.90;;;;;;5090938;28;20209;-70
2022/09/12 08:47:39;;;;;;;14.60;9.80;;;17.50;99.90;;;;;;5091806;28;20318;-71
2022/09/12 08:50:16;;;;;;;11.93;8.30;;;17.60;99.90;;;;;;5091486;28;20201;-71
2022/09/12 08:52:50;;;;;;;13.80;7.88;;;17.90;99.90;;;;;;5091793;28;20205;-71
2022/09/12 08:55:27;;;;;;;12.00;7.70;;;18.00;99.90;;;;;;5073459;28;20213;-71
2022/09/12 08:57:54;;;;;;;14.18;9.95;;;18.30;99.90;;;;;;5108389;28;20417;-71
2022/09/12 09:00:22;;;;;;;12.75;7.50;;;18.20;99.90;;;;;;5111579;28;20220;-71
2022/09/12 09:03:10;;;;;;;10.77;7.65;;;18.40;99.90;;;;;;5103655;28;20644;-71
2022/09/12 09:05:50;;;;;;;10.65;7.43;;;18.50;99.90;;;;;;5106628;28;20210;-71
2022/09/12 09:08:40;;;;;;;13.43;7.72;;;18.60;99.90;;;;;;5075569;28;20206;-71
2022/09/12 09:11:20;;;;;;;11.02;8.02;;;19.00;99.90;;;;;;5095193;28;20205;-71
2022/09/12 09:16:43;;;;;;;12.80;8.23;;;19.40;99.90;;;;;;5095009;28;20266;-71
2022/09/12 09:19:17;;;;;;;12.02;7.85;;;19.90;99.90;;;;;;5095631;28;20234;-71
2022/09/12 09:21:51;;;;;;;9.35;7.03;;;20.20;99.90;;;;;;5104692;28;20205;-71
2022/09/12 09:24:21;;;;;;;7.57;5.65;;;20.20;1.00;;;;;;5108678;28;20194;-71
2022/09/12 09:26:56;;;;;;;9.35;6.15;;;20.50;99.90;;;;;;5095230;28;20232;-71
2022/09/12 09:29:26;;;;;;;7.25;5.35;;;21.00;99.90;;;;;;5095454;28;20229;-71
2022/09/12 09:31:58;;;;;;;6.38;4.90;;;21.20;99.90;;;;;;5094543;28;20213;-72
2022/09/12 09:34:30;;;;;;;9.20;4.85;;;20.70;99.90;;;;;;5094485;28;20202;-72
2022/09/12 09:37:02;;;;;;;6.75;4.75;;;21.20;99.90;;;;;;5094979;28;20231;-72
2022/09/12 09:39:48;;;;;;;8.77;4.82;;;21.40;99.90;;;;;;5094595;28;20197;-72
2022/09/12 09:42:27;;;;;;;9.20;5.20;;;21.50;99.90;;;;;;5095135;28;20201;-72
2022/09/12 09:44:58;;;;;;;7.53;4.70;;;21.40;99.90;;;;;;5116536;27;20235;-72
2022/09/12 09:47:27;;;;;;;7.00;4.30;;;21.60;1.00;;;;;;5098979;28;20691;-72
2022/09/12 09:49:54;;;;;;;4.93;4.13;;;22.10;99.90;;;;;;5104678;28;20200;-72
2022/09/12 09:52:26;;;;;;;5.82;4.07;;;22.20;99.90;;;;;;5103710;28;20566;-72
2022/09/12 09:54:57;;;;;;;6.10;4.38;;;22.00;99.90;;;;;;5100769;28;20254;-72
2022/09/12 09:57:43;;;;;;;4.45;3.90;;;22.10;1.00;;;;;;5105198;27;20200;-72
2022/09/12 10:00:31;;;;;;;4.97;4.03;;;22.10;99.90;;;;;;5113699;28;20292;-72
2022/09/12 10:03:25;;;;;;;7.28;3.88;;;22.30;1.00;;;;;;5094000;28;20284;-72
2022/09/12 10:05:53;;;;;;;4.13;3.75;;;22.00;1.00;;;;;;5094283;28;20222;-72
2022/09/12 10:08:23;;;;;;;3.58;3.25;;;22.10;1.00;;;;;;5094675;28;20672;-72
2022/09/12 10:10:58;;;;;;;4.18;2.90;;;21.90;1.00;;;;;;5093178;28;20512;-72
2022/09/12 10:13:32;;;;;;;4.45;3.40;;;22.00;24.10;;;;;;5094682;28;20211;-72
2022/09/12 10:16:01;;;;;;;4.60;3.35;;;22.10;1.00;;;;;;5093615;28;20252;-72
2022/09/12 10:18:41;;;;;;;3.83;3.30;;;22.20;1.00;;;;;;5094452;28;20224;-72
2022/09/12 10:21:17;;;;;;;5.22;3.08;;;22.20;99.90;;;;;;5092939;28;20262;-72
2022/09/12 10:23:46;;;;;;;3.20;2.90;;;22.50;1.00;;;;;;5094124;28;20204;-72
2022/09/12 10:26:14;;;;;;;4.47;3.10;;;22.70;1.00;;;;;;5094114;28;20754;-72
2022/09/12 10:28:44;;;;;;;3.40;3.10;;;22.50;1.00;;;;;;5094118;28;20660;-72
2022/09/12 10:31:27;;;;;;;2.63;2.40;;;22.70;1.00;;;;;;5093002;28;20202;-72
2022/09/12 10:33:57;;;;;;;3.95;3.22;;;22.50;99.90;;;;;;5093914;28;20304;-72
2022/09/12 10:36:25;;;;;;;3.28;2.95;;;22.70;62.10;;;;;;5093283;28;20681;-72
2022/09/12 10:38:53;;;;;;;6.72;3.17;;;22.80;1.00;;;;;;5113881;27;20205;-72
2022/09/12 10:41:21;;;;;;;6.25;2.80;;;22.80;1.00;;;;;;5104323;28;20206;-72
2022/09/12 10:43:49;;;;;;;4.07;2.70;;;23.10;1.00;;;;;;5113232;28;20201;-72
2022/09/12 10:46:27;;;;;;;3.38;3.00;;;23.00;99.90;;;;;;5112633;28;20200;-72
2022/09/12 10:49:19;;;;;;;3.40;3.00;;;22.90;1.00;;;;;;5114081;28;20201;-72
2022/09/12 10:51:46;;;;;;;3.05;2.80;;;23.20;1.00;;;;;;5112910;28;20537;-72
2022/09/12 10:54:15;;;;;;;3.00;2.80;;;22.70;1.00;;;;;;5113862;28;20205;-72
2022/09/12 10:56:53;;;;;;;2.55;2.38;;;22.80;1.00;;;;;;5114370;28;20201;-72
2022/09/12 10:59:31;;;;;;;2.60;2.40;;;23.10;1.00;;;;;;5107005;28;20201;-72
2022/09/12 11:02:01;;;;;;;2.72;2.53;;;23.40;1.00;;;;;;5114932;27;20569;-72
2022/09/12 11:04:44;;;;;;;3.30;2.70;;;23.20;1.00;;;;;;5112011;28;20205;-72
2022/09/12 11:07:32;;;;;;;4.50;3.10;;;23.40;44.50;;;;;;5095065;28;20236;-72
2022/09/12 11:10:06;;;;;;;3.60;3.05;;;23.20;1.00;;;;;;5092553;28;20208;-72
2022/09/12 11:12:40;;;;;;;3.28;2.72;;;23.40;1.00;;;;;;5093141;28;20254;-72
2022/09/12 11:15:27;;;;;;;2.45;2.25;;;23.80;1.00;;;;;;5092974;28;20201;-72
2022/09/12 11:17:59;;;;;;;2.47;2.28;;;23.70;1.00;;;;;;5092617;28;20416;-72
2022/09/12 11:20:51;;;;;;;2.17;1.98;;;23.70;1.00;;;;;;5093077;28;20586;-72
2022/09/12 11:24:01;;;;;;;2.85;2.10;;;23.70;1.00;;;;;;5111842;28;20193;-72
2022/09/12 11:26:44;;;;;;;1.77;1.67;;;23.60;1.00;;;;;;5109279;28;20643;-72
2022/09/12 11:29:20;;;;;;;2.55;2.35;;;23.90;1.00;;;;;;5113971;27;20201;-72
2022/09/12 11:32:10;;;;;;;3.17;2.88;;;23.90;1.00;;;;;;5113005;28;20200;-72
2022/09/12 11:34:52;;;;;;;3.67;2.72;;;23.90;1.00;;;;;;5113166;28;20197;-72
2022/09/12 11:37:34;;;;;;;3.97;2.88;;;23.70;1.00;;;;;;5092559;28;20239;-72
2022/09/12 11:40:11;;;;;;;2.42;2.22;;;24.20;1.00;;;;;;5092179;28;20202;-72
2022/09/12 11:42:40;;;;;;;3.42;2.42;;;24.10;1.00;;;;;;5092350;28;20224;-72
2022/09/12 11:45:15;;;;;;;2.20;2.05;;;24.50;1.00;;;;;;5092171;28;20218;-72
2022/09/12 11:47:49;;;;;;;4.13;2.78;;;24.60;1.00;;;;;;5092559;28;20221;-72
2022/09/12 11:50:22;;;;;;;3.35;2.10;;;24.40;99.90;;;;;;5091680;28;20574;-72
2022/09/12 11:52:52;;;;;;;3.30;2.30;;;24.00;99.90;;;;;;5092630;28;20209;-72
2022/09/12 11:55:23;;;;;;;2.60;2.40;;;24.00;99.90;;;;;;5092036;28;20547;-72
2022/09/12 11:57:54;;;;;;;2.30;2.10;;;24.10;99.90;;;;;;5092613;28;20292;-72
2022/09/12 12:00:23;;;;;;;3.95;2.10;;;24.20;99.90;;;;;;5092230;28;20205;-72
2022/09/12 12:02:58;;;;;;;2.92;2.03;;;24.30;99.90;;;;;;5096228;28;20201;-73
2022/09/12 12:05:29;;;;;;;2.28;2.00;;;24.30;99.90;;;;;;5116980;27;20189;-72
2022/09/12 12:07:59;;;;;;;2.47;2.28;;;24.40;99.90;;;;;;5092148;28;20590;-72
2022/09/12 12:10:36;;;;;;;2.38;1.92;;;23.60;99.90;;;;;;5091741;28;20628;-72
2022/09/12 12:13:05;;;;;;;1.92;1.83;;;23.70;99.90;;;;;;5074257;28;20209;-72
2022/09/12 12:15:35;;;;;;;3.67;2.30;;;23.50;99.90;;;;;;5098698;28;20299;-72
2022/09/12 12:18:04;;;;;;;2.00;1.90;;;24.00;99.90;;;;;;5112690;28;20200;-72
2022/09/12 12:20:32;;;;;;;3.40;1.95;;;23.80;99.90;;;;;;5111571;28;20291;-72
2022/09/12 12:23:00;;;;;;;1.92;1.83;;;24.10;99.90;;;;;;5112101;28;20879;-73
2022/09/12 12:25:40;;;;;;;2.20;2.00;;;23.80;99.90;;;;;;5111412;28;20243;-72
2022/09/12 12:28:08;;;;;;;2.22;1.90;;;24.10;99.90;;;;;;5112651;28;20228;-72
2022/09/12 12:31:03;;;;;;;1.90;1.80;;;24.20;99.90;;;;;;5111535;28;20204;-72
2022/09/12 12:33:53;;;;;;;2.10;1.90;;;24.10;99.90;;;;;;5123833;28;20556;-73
2022/09/12 12:36:37;;;;;;;3.53;2.10;;;24.00;99.90;;;;;;5097030;28;20644;-72
2022/09/12 12:39:46;;;;;;;2.47;1.92;;;24.10;99.90;;;;;;5099571;28;20249;-72
2022/09/12 12:43:04;;;;;;;2.88;2.60;;;24.10;99.90;;;;;;5091313;28;20259;-72
2022/09/12 12:46:06;;;;;;;2.60;1.92;;;24.20;99.90;;;;;;5124213;27;20199;-72
2022/09/12 12:48:47;;;;;;;1.80;1.70;;;24.30;99.90;;;;;;5124981;27;20250;-72
2022/09/12 12:51:30;;;;;;;3.20;2.30;;;24.90;99.90;;;;;;5121425;27;20203;-72
2022/09/12 12:53:58;;;;;;;1.83;1.60;;;25.10;99.90;;;;;;5116490;27;20674;-72
2022/09/12 12:56:34;;;;;;;2.10;1.90;;;24.50;57.90;;;;;;5096914;28;20221;-72
2022/09/12 12:59:04;;;;;;;3.65;2.22;;;24.40;23.00;;;;;;5122203;27;20689;-72
2022/09/12 13:01:38;;;;;;;2.03;1.67;;;24.60;71.50;;;;;;5116730;27;20564;-72
2022/09/12 13:04:14;;;;;;;1.73;1.63;;;24.50;54.90;;;;;;5124713;27;20195;-72
2022/09/12 13:06:43;;;;;;;2.20;2.00;;;24.50;34.10;;;;;;5114072;27;20201;-72